Aguanga, California
Current Conditions -  °F | °C
As of 4:15 AM on Saturday 25 Oct 2014 (Local Time) from KF70 Reporting Station
Overcast Overcast  
Wind Chill: 61°   Ceiling: 8500
Heat Index: 61°   Visibility: 10mi
Dew Point: 39°   Wind: 0mph
Humidity: 45%   Direction: NA
Pressure: 30.03"   Gusts: NA
Location:  33.44°N, 116.87°W
Report Text: KF70 251115Z AUTO 00000KT 10SM OVC085 16/04 A3003 RMK AO1
Loading
Personal Weather Stations






























Interactive Weather Map New forecast layout! Learn more

10-Day Weather Forecast

Advertisements
Track Severe Weather on mobile